createdAt,value
2017-06-29T00:01:36.896Z,21.90
2017-06-29T00:04:04.398Z,21.90
2017-06-29T00:06:31.877Z,21.80
2017-06-29T00:08:59.378Z,21.80
2017-06-29T00:11:26.895Z,21.80
2017-06-29T00:13:54.423Z,21.80
2017-06-29T00:16:22.305Z,21.80
2017-06-29T00:18:51.185Z,21.80
2017-06-29T00:21:19.081Z,21.80
2017-06-29T00:23:46.569Z,21.80
2017-06-29T00:26:14.083Z,21.70
2017-06-29T00:28:41.978Z,21.60
2017-06-29T00:31:09.467Z,21.60
2017-06-29T00:33:38.915Z,21.40
2017-06-29T00:36:06.402Z,21.40
2017-06-29T00:38:33.899Z,21.40
2017-06-29T00:41:01.369Z,21.40
2017-06-29T00:43:28.871Z,21.40
2017-06-29T00:45:56.344Z,21.30
2017-06-29T00:48:25.774Z,21.30
2017-06-29T00:50:53.237Z,21.40
2017-06-29T00:53:20.721Z,21.40
2017-06-29T00:55:48.205Z,21.40
2017-06-29T00:58:15.694Z,21.40
2017-06-29T01:00:43.170Z,21.40
2017-06-29T01:03:10.682Z,21.40
2017-06-29T01:05:38.154Z,21.10
2017-06-29T01:08:07.589Z,21.00
2017-06-29T01:10:36.026Z,21.10
2017-06-29T01:13:03.831Z,21.20
2017-06-29T01:15:31.702Z,21.20
2017-06-29T01:17:59.590Z,21.30
2017-06-29T01:20:29.029Z,21.30
2017-06-29T01:22:56.497Z,21.30
2017-06-29T01:25:24.071Z,21.30
2017-06-29T01:27:51.542Z,21.30
2017-06-29T01:30:19.041Z,21.30
2017-06-29T01:32:46.509Z,21.40
2017-06-29T01:35:14.326Z,21.40
2017-06-29T01:37:41.802Z,21.40
2017-06-29T01:40:09.267Z,21.30
2017-06-29T01:42:36.762Z,21.30
2017-06-29T01:45:04.233Z,21.30
2017-06-29T01:47:31.721Z,21.20
2017-06-29T01:49:59.202Z,21.20
2017-06-29T01:52:26.722Z,21.20
2017-06-29T01:54:54.589Z,21.30
2017-06-29T01:57:22.552Z,21.30
2017-06-29T01:59:50.520Z,21.30
2017-06-29T02:02:18.936Z,21.40
2017-06-29T02:04:46.430Z,21.30
2017-06-29T02:07:13.905Z,21.30
2017-06-29T02:09:41.398Z,21.30
2017-06-29T02:12:08.873Z,21.30
2017-06-29T02:14:36.369Z,21.30
2017-06-29T02:17:03.842Z,21.20
2017-06-29T02:19:31.734Z,21.30
2017-06-29T02:21:59.200Z,21.30
2017-06-29T02:24:26.719Z,21.40
2017-06-29T02:26:54.580Z,21.40
2017-06-29T02:29:22.078Z,21.40
2017-06-29T02:31:49.553Z,21.40
2017-06-29T02:34:17.054Z,21.30
2017-06-29T02:36:45.818Z,21.30
2017-06-29T02:39:14.701Z,21.40
2017-06-29T02:41:42.182Z,21.40
2017-06-29T02:44:09.716Z,21.30
2017-06-29T02:46:37.198Z,21.30
2017-06-29T02:49:05.086Z,21.20
2017-06-29T02:51:32.625Z,21.20
2017-06-29T02:54:00.514Z,21.30
2017-06-29T02:56:28.054Z,21.30
2017-06-29T02:58:55.945Z,21.40
2017-06-29T03:01:23.414Z,21.40
2017-06-29T03:03:50.906Z,21.30
2017-06-29T03:06:18.406Z,21.40
2017-06-29T03:08:45.901Z,21.40
2017-06-29T03:11:13.373Z,21.30
2017-06-29T03:13:40.880Z,21.30
2017-06-29T03:16:08.351Z,21.30
2017-06-29T03:18:35.839Z,21.30
2017-06-29T03:21:04.250Z,21.40
2017-06-29T03:23:32.139Z,21.30
2017-06-29T03:25:59.614Z,21.30
2017-06-29T03:28:27.102Z,21.30
2017-06-29T03:30:54.610Z,21.10
2017-06-29T03:33:22.097Z,21.20
2017-06-29T03:35:49.573Z,21.10
2017-06-29T03:38:17.062Z,21.00
2017-06-29T03:40:45.881Z,21.00
2017-06-29T03:43:13.366Z,21.00
2017-06-29T03:45:41.738Z,20.90
2017-06-29T03:48:09.229Z,21.00
2017-06-29T03:50:36.697Z,20.80
2017-06-29T03:53:04.193Z,20.90
2017-06-29T03:55:32.589Z,20.80
2017-06-29T03:58:00.072Z,20.70
2017-06-29T04:00:27.542Z,20.70
2017-06-29T04:02:55.426Z,20.60
2017-06-29T04:05:22.902Z,20.60
2017-06-29T04:07:50.390Z,20.60
2017-06-29T04:10:17.856Z,20.60
2017-06-29T04:12:45.345Z,20.60
2017-06-29T04:15:13.213Z,21.10
2017-06-29T04:17:41.167Z,21.20
2017-06-29T04:20:09.137Z,21.40
2017-06-29T04:22:37.026Z,21.50
2017-06-29T04:25:04.616Z,21.50
2017-06-29T04:27:33.005Z,21.60
2017-06-29T04:30:00.509Z,21.70
2017-06-29T04:32:28.463Z,21.80
2017-06-29T04:34:56.438Z,21.90
2017-06-29T04:37:24.325Z,21.90
2017-06-29T04:39:51.793Z,21.90
2017-06-29T04:42:19.289Z,22.00
2017-06-29T04:44:46.756Z,22.00
2017-06-29T04:47:14.334Z,22.10
2017-06-29T04:49:42.201Z,22.10
2017-06-29T04:52:10.162Z,22.20
2017-06-29T04:54:38.130Z,22.20
2017-06-29T04:57:06.989Z,22.20
2017-06-29T04:59:34.456Z,22.20
2017-06-29T05:02:01.954Z,22.30
2017-06-29T05:04:29.489Z,22.30
2017-06-29T05:06:57.469Z,22.30
2017-06-29T05:09:25.428Z,22.40
2017-06-29T05:11:53.317Z,22.40
2017-06-29T05:14:20.785Z,22.40
2017-06-29T05:16:48.269Z,22.40
2017-06-29T05:19:16.634Z,22.40
2017-06-29T05:21:44.141Z,22.50
2017-06-29T05:24:11.620Z,22.50
2017-06-29T05:26:39.201Z,22.50
2017-06-29T05:29:06.728Z,22.50
2017-06-29T05:31:34.681Z,22.60
2017-06-29T05:34:02.154Z,22.60
2017-06-29T05:36:30.033Z,22.60
2017-06-29T05:38:57.513Z,22.60
2017-06-29T05:41:25.020Z,22.60
2017-06-29T05:43:53.808Z,22.70
2017-06-29T05:46:21.697Z,22.70
2017-06-29T05:48:49.169Z,22.70
2017-06-29T05:51:17.001Z,22.70
2017-06-29T05:53:44.870Z,22.70
2017-06-29T05:56:12.764Z,22.80
2017-06-29T05:58:42.233Z,22.70
2017-06-29T06:01:10.102Z,22.80
2017-06-29T06:03:37.985Z,22.80
2017-06-29T06:06:05.489Z,22.80
2017-06-29T06:08:32.985Z,22.90
2017-06-29T06:11:00.854Z,22.90
2017-06-29T06:13:29.025Z,22.90
2017-06-29T06:15:56.893Z,22.90
2017-06-29T06:18:24.774Z,22.90
2017-06-29T06:20:53.158Z,22.90
2017-06-29T06:23:20.693Z,22.90
2017-06-29T06:25:48.702Z,22.90
2017-06-29T06:28:17.140Z,23.00
2017-06-29T06:30:46.977Z,23.00
2017-06-29T06:33:14.514Z,23.00
2017-06-29T06:35:42.653Z,23.00
2017-06-29T06:38:10.151Z,23.00
2017-06-29T06:40:38.047Z,23.10
2017-06-29T06:43:05.563Z,23.10
2017-06-29T06:45:33.547Z,23.10
2017-06-29T06:48:01.044Z,23.10
2017-06-29T06:50:28.521Z,23.10
2017-06-29T06:52:56.025Z,23.20
2017-06-29T06:55:24.449Z,23.20
2017-06-29T06:57:52.045Z,23.20
2017-06-29T07:00:19.912Z,23.20
2017-06-29T07:02:48.064Z,23.20
2017-06-29T07:05:15.544Z,23.20
2017-06-29T07:07:43.416Z,23.30
2017-06-29T07:10:11.310Z,23.30
2017-06-29T07:12:38.824Z,23.30
2017-06-29T07:15:08.669Z,23.30
2017-06-29T07:17:36.147Z,23.30
2017-06-29T07:20:03.650Z,23.30
2017-06-29T07:22:31.127Z,23.30
2017-06-29T07:24:58.969Z,23.30
2017-06-29T07:27:26.845Z,23.40
2017-06-29T07:29:54.814Z,23.40
2017-06-29T07:32:22.702Z,23.40
2017-06-29T07:34:50.233Z,23.40
2017-06-29T07:37:18.210Z,23.40
2017-06-29T07:39:46.174Z,23.40
2017-06-29T07:42:14.066Z,23.50
2017-06-29T07:44:41.598Z,23.50
2017-06-29T07:47:11.430Z,23.50
2017-06-29T07:49:38.977Z,23.50
2017-06-29T07:52:06.844Z,23.50
2017-06-29T07:54:34.384Z,23.50
2017-06-29T07:57:02.356Z,23.60
2017-06-29T07:59:30.533Z,23.60
2017-06-29T08:01:59.296Z,23.60
2017-06-29T08:04:26.774Z,23.60
2017-06-29T08:06:56.625Z,23.60
2017-06-29T08:09:24.145Z,23.60
2017-06-29T08:11:53.156Z,23.60
2017-06-29T08:14:20.706Z,23.70
2017-06-29T08:16:48.575Z,23.70
2017-06-29T08:19:16.529Z,23.70
2017-06-29T08:21:44.396Z,23.70
2017-06-29T08:24:12.564Z,23.70
2017-06-29T08:26:40.532Z,23.70
2017-06-29T08:29:08.013Z,23.70
2017-06-29T08:31:35.558Z,23.70
2017-06-29T08:34:03.433Z,23.70
2017-06-29T08:36:32.040Z,23.70
2017-06-29T08:38:59.509Z,23.80
2017-06-29T08:41:26.985Z,23.80
2017-06-29T08:43:54.515Z,23.80
2017-06-29T08:46:21.997Z,23.90
2017-06-29T08:48:49.489Z,23.80
2017-06-29T08:51:17.405Z,23.80
2017-06-29T08:53:44.889Z,23.80
2017-06-29T08:56:13.600Z,23.90
2017-06-29T08:58:41.566Z,24.00
2017-06-29T09:01:09.537Z,24.00
2017-06-29T09:03:37.501Z,24.00
2017-06-29T09:06:05.156Z,24.10
2017-06-29T09:08:33.480Z,24.10
2017-06-29T09:11:00.993Z,24.10
2017-06-29T09:13:29.929Z,24.10
2017-06-29T09:15:57.487Z,24.10
2017-06-29T09:18:24.961Z,24.10
2017-06-29T09:20:52.764Z,24.10
2017-06-29T09:23:21.089Z,24.10
2017-06-29T09:25:49.544Z,24.10
2017-06-29T09:28:17.052Z,24.20
2017-06-29T09:30:44.589Z,24.20
2017-06-29T09:33:12.098Z,24.20
2017-06-29T09:35:39.991Z,24.20
2017-06-29T09:38:07.477Z,24.20
2017-06-29T09:40:35.301Z,24.30
2017-06-29T09:43:02.841Z,24.30
2017-06-29T09:45:30.717Z,24.30
2017-06-29T09:47:58.676Z,24.30
2017-06-29T09:50:26.641Z,24.30
2017-06-29T09:52:54.619Z,24.40
2017-06-29T09:55:22.613Z,24.40
2017-06-29T09:57:50.142Z,24.40
2017-06-29T10:00:18.047Z,24.40
2017-06-29T10:02:45.561Z,24.40
2017-06-29T10:05:13.536Z,24.40
2017-06-29T10:07:41.413Z,24.40
2017-06-29T10:10:11.250Z,24.40
2017-06-29T10:12:38.729Z,24.40
2017-06-29T10:15:06.333Z,24.40
2017-06-29T10:17:34.296Z,24.40
2017-06-29T10:20:02.281Z,24.40
2017-06-29T10:22:30.155Z,24.50
2017-06-29T10:24:57.653Z,24.50
2017-06-29T10:27:25.144Z,24.50
2017-06-29T10:29:53.041Z,24.60
2017-06-29T10:32:20.525Z,24.60
2017-06-29T10:34:49.997Z,24.60
2017-06-29T10:37:17.537Z,24.60
2017-06-29T10:39:47.356Z,24.60
2017-06-29T10:42:14.837Z,24.60
2017-06-29T10:44:42.356Z,24.60
2017-06-29T10:47:11.206Z,24.60
2017-06-29T10:49:38.809Z,24.60
2017-06-29T10:52:06.697Z,24.50
2017-06-29T10:54:34.193Z,24.50
2017-06-29T10:57:01.672Z,24.50
2017-06-29T10:59:29.240Z,24.60
2017-06-29T11:01:57.214Z,24.70
2017-06-29T11:04:24.733Z,24.70
2017-06-29T11:06:52.212Z,24.90
2017-06-29T11:09:19.789Z,25.00
2017-06-29T11:11:47.767Z,24.90
2017-06-29T11:14:16.033Z,24.80
2017-06-29T11:16:43.996Z,24.80
2017-06-29T11:19:11.881Z,24.80
2017-06-29T11:21:39.383Z,24.80
2017-06-29T11:24:06.885Z,24.80
2017-06-29T11:26:35.053Z,24.80
2017-06-29T11:29:02.929Z,24.80
2017-06-29T11:31:30.880Z,24.90
2017-06-29T11:33:58.786Z,24.90
2017-06-29T11:36:27.234Z,24.90
2017-06-29T11:38:57.065Z,25.00
2017-06-29T11:41:24.636Z,25.00
2017-06-29T11:43:52.159Z,25.00
2017-06-29T11:46:21.997Z,25.00
2017-06-29T11:48:49.528Z,25.00
2017-06-29T11:51:17.704Z,25.10
2017-06-29T11:53:45.673Z,25.10
2017-06-29T11:56:13.553Z,25.00
2017-06-29T11:58:42.433Z,25.00
2017-06-29T12:01:11.257Z,25.00
2017-06-29T12:03:39.853Z,25.00
2017-06-29T12:06:08.285Z,25.00
2017-06-29T12:08:35.777Z,25.10
2017-06-29T12:11:03.281Z,25.10
2017-06-29T12:13:30.856Z,25.20
2017-06-29T12:15:59.125Z,25.10
2017-06-29T12:18:27.019Z,25.10
2017-06-29T12:20:54.558Z,25.10
2017-06-29T12:23:22.453Z,25.00
2017-06-29T12:25:49.938Z,25.00
2017-06-29T12:28:17.533Z,24.90
2017-06-29T12:30:45.418Z,24.90
2017-06-29T12:33:12.960Z,24.90
2017-06-29T12:35:40.832Z,24.70
2017-06-29T12:38:08.796Z,24.70
2017-06-29T12:40:36.765Z,24.70
2017-06-29T12:43:04.670Z,24.70
2017-06-29T12:45:32.188Z,24.70
2017-06-29T12:48:00.098Z,24.90
2017-06-29T12:50:27.615Z,24.90
2017-06-29T12:52:57.454Z,25.00
2017-06-29T12:55:24.942Z,25.00
2017-06-29T12:57:52.445Z,25.00
2017-06-29T13:00:20.405Z,25.10
2017-06-29T13:02:47.969Z,25.10
2017-06-29T13:05:16.781Z,25.20
2017-06-29T13:07:45.241Z,25.10
2017-06-29T13:10:13.205Z,25.20
2017-06-29T13:12:41.165Z,25.20
2017-06-29T13:15:09.049Z,25.30
2017-06-29T13:17:36.901Z,25.30
2017-06-29T13:20:04.466Z,25.40
2017-06-29T13:22:32.433Z,25.30
2017-06-29T13:25:00.341Z,25.30
2017-06-29T13:27:28.762Z,25.30
2017-06-29T13:29:56.262Z,25.30
2017-06-29T13:32:23.789Z,25.30
2017-06-29T13:34:51.756Z,25.30
2017-06-29T13:37:19.724Z,25.30
2017-06-29T13:39:47.618Z,25.30
2017-06-29T13:42:15.096Z,25.30
2017-06-29T13:44:44.560Z,25.30
2017-06-29T13:47:12.521Z,25.40
2017-06-29T13:49:40.489Z,25.40
2017-06-29T13:52:08.461Z,25.50
2017-06-29T13:54:38.306Z,25.50
2017-06-29T13:57:05.833Z,25.50
2017-06-29T13:59:35.720Z,25.60
2017-06-29T14:02:03.195Z,25.60
2017-06-29T14:04:31.085Z,25.60
2017-06-29T14:06:58.663Z,25.60
2017-06-29T14:09:26.183Z,25.60
2017-06-29T14:11:54.157Z,25.50
2017-06-29T14:14:22.054Z,25.60
2017-06-29T14:16:49.575Z,25.60
2017-06-29T14:19:17.466Z,25.60
2017-06-29T14:21:44.949Z,25.60
2017-06-29T14:24:12.453Z,25.60
2017-06-29T14:26:40.332Z,25.60
2017-06-29T14:29:08.289Z,25.60
2017-06-29T14:31:36.259Z,25.60
2017-06-29T14:34:06.092Z,25.60
2017-06-29T14:36:33.649Z,25.50
2017-06-29T14:39:01.185Z,25.50
2017-06-29T14:41:28.745Z,25.50
2017-06-29T14:43:58.700Z,25.40
2017-06-29T14:46:27.136Z,25.40
2017-06-29T14:48:55.105Z,25.40
2017-06-29T14:51:23.074Z,25.30
2017-06-29T14:53:50.977Z,25.40
2017-06-29T14:56:18.456Z,25.30
2017-06-29T14:58:46.056Z,25.40
2017-06-29T15:01:14.876Z,25.50
2017-06-29T15:03:43.325Z,25.50
2017-06-29T15:06:11.295Z,25.50
2017-06-29T15:08:39.265Z,25.50
2017-06-29T15:11:07.557Z,25.60
2017-06-29T15:13:35.102Z,25.60
2017-06-29T15:16:03.065Z,25.50
2017-06-29T15:18:31.038Z,25.50
2017-06-29T15:20:58.925Z,25.50
2017-06-29T15:23:26.453Z,25.50
2017-06-29T15:25:54.342Z,25.50
2017-06-29T15:28:21.836Z,25.50
2017-06-29T15:30:49.337Z,25.60
2017-06-29T15:33:17.224Z,25.60
2017-06-29T15:35:44.763Z,25.70
2017-06-29T15:38:12.645Z,25.60
2017-06-29T15:40:40.127Z,25.70
2017-06-29T15:43:09.575Z,25.60
2017-06-29T15:45:37.046Z,25.60
2017-06-29T15:48:04.614Z,25.60
2017-06-29T15:50:32.569Z,25.50
2017-06-29T15:53:00.461Z,25.40
2017-06-29T15:55:27.997Z,25.40
2017-06-29T15:57:57.829Z,25.30
2017-06-29T16:00:25.309Z,25.30
2017-06-29T16:02:53.066Z,25.20
2017-06-29T16:05:20.536Z,25.20
2017-06-29T16:07:48.013Z,25.20
2017-06-29T16:10:15.604Z,25.20
2017-06-29T16:12:43.576Z,25.20
2017-06-29T16:15:11.537Z,25.20
2017-06-29T16:17:39.505Z,25.20
2017-06-29T16:20:08.320Z,25.10
2017-06-29T16:22:35.856Z,25.10
2017-06-29T16:25:03.818Z,25.10
2017-06-29T16:27:31.789Z,25.10
2017-06-29T16:29:59.767Z,25.10
2017-06-29T16:32:27.654Z,25.10
2017-06-29T16:34:55.136Z,25.10
2017-06-29T16:37:22.944Z,25.10
2017-06-29T16:39:50.927Z,25.10
2017-06-29T16:42:18.876Z,25.10
2017-06-29T16:44:46.781Z,25.10
2017-06-29T16:47:14.312Z,25.10
2017-06-29T16:49:42.609Z,25.00
2017-06-29T16:52:10.141Z,25.00
2017-06-29T16:54:38.949Z,25.00
2017-06-29T16:57:06.441Z,25.00
2017-06-29T16:59:34.869Z,25.10
2017-06-29T17:02:04.702Z,25.00
2017-06-29T17:04:32.232Z,25.10
2017-06-29T17:07:00.110Z,25.00
2017-06-29T17:09:28.065Z,25.00
2017-06-29T17:11:55.953Z,25.00
2017-06-29T17:14:23.797Z,25.00
2017-06-29T17:16:51.670Z,25.00
2017-06-29T17:19:19.637Z,25.00
2017-06-29T17:21:47.542Z,25.00
2017-06-29T17:24:15.058Z,25.00
2017-06-29T17:26:44.907Z,25.00
2017-06-29T17:29:12.429Z,25.00
2017-06-29T17:31:40.397Z,25.00
2017-06-29T17:34:07.965Z,25.00
2017-06-29T17:36:35.921Z,24.90
2017-06-29T17:39:03.813Z,24.90
2017-06-29T17:41:31.345Z,24.90
2017-06-29T17:43:59.216Z,24.90
2017-06-29T17:46:26.773Z,24.90
2017-06-29T17:48:54.741Z,24.90
2017-06-29T17:51:22.633Z,24.90
2017-06-29T17:53:50.165Z,24.90
2017-06-29T17:56:18.057Z,24.90
2017-06-29T17:58:45.589Z,24.90
2017-06-29T18:01:15.429Z,24.80
2017-06-29T18:03:42.961Z,24.80
2017-06-29T18:06:12.793Z,24.80
2017-06-29T18:08:40.290Z,24.80
2017-06-29T18:11:07.778Z,24.80
2017-06-29T18:13:35.345Z,24.80
2017-06-29T18:16:05.221Z,24.70
2017-06-29T18:18:33.637Z,24.70
2017-06-29T18:21:01.500Z,24.70
2017-06-29T18:23:29.061Z,24.70
2017-06-29T18:25:57.029Z,24.70
2017-06-29T18:28:25.201Z,24.70
2017-06-29T18:30:53.073Z,24.70
2017-06-29T18:33:21.037Z,24.70
2017-06-29T18:35:48.943Z,24.70
2017-06-29T18:38:16.431Z,24.70
2017-06-29T18:40:45.081Z,24.70
2017-06-29T18:43:12.567Z,24.70
2017-06-29T18:45:40.064Z,24.70
2017-06-29T18:48:07.963Z,24.70
2017-06-29T18:50:35.492Z,24.70
2017-06-29T18:53:03.769Z,24.70
2017-06-29T18:55:31.652Z,24.70
2017-06-29T18:57:59.148Z,24.60
2017-06-29T19:00:26.657Z,24.60
2017-06-29T19:02:54.158Z,24.60
2017-06-29T19:05:21.993Z,24.60
2017-06-29T19:07:49.493Z,24.60
2017-06-29T19:10:17.008Z,24.70
2017-06-29T19:12:44.515Z,24.70
2017-06-29T19:15:13.017Z,24.70
2017-06-29T19:17:42.888Z,24.70
2017-06-29T19:20:11.329Z,24.70
2017-06-29T19:22:38.812Z,24.70
2017-06-29T19:25:06.480Z,24.70
2017-06-29T19:27:33.985Z,24.70
2017-06-29T19:30:03.085Z,24.70
2017-06-29T19:32:31.017Z,24.70
2017-06-29T19:34:58.517Z,24.70
2017-06-29T19:37:26.030Z,24.60
2017-06-29T19:39:53.544Z,24.60
2017-06-29T19:42:21.393Z,24.60
2017-06-29T19:44:49.318Z,24.60
2017-06-29T19:47:16.875Z,24.60
2017-06-29T19:49:44.386Z,24.60
2017-06-29T19:52:11.967Z,24.60
2017-06-29T19:54:39.797Z,24.60
2017-06-29T19:57:08.680Z,24.50
2017-06-29T19:59:36.561Z,24.50
2017-06-29T20:02:04.463Z,24.50
2017-06-29T20:04:31.953Z,24.50
2017-06-29T20:06:59.741Z,24.50
2017-06-29T20:09:27.720Z,24.50
2017-06-29T20:11:55.193Z,24.50
2017-06-29T20:14:22.693Z,24.50
2017-06-29T20:16:50.189Z,24.50
2017-06-29T20:19:17.677Z,24.50
2017-06-29T20:21:45.185Z,24.50
2017-06-29T20:24:13.075Z,24.40
2017-06-29T20:26:40.593Z,24.40
2017-06-29T20:29:08.080Z,24.40
2017-06-29T20:31:35.993Z,24.40
2017-06-29T20:34:03.538Z,24.40
2017-06-29T20:36:31.078Z,24.40
2017-06-29T20:38:58.558Z,24.40
2017-06-29T20:41:26.392Z,24.40
2017-06-29T20:43:53.885Z,24.40
2017-06-29T20:46:21.383Z,24.40
2017-06-29T20:48:48.976Z,24.40
2017-06-29T20:51:16.465Z,24.40
2017-06-29T20:53:43.965Z,24.40
2017-06-29T20:56:11.945Z,24.40
2017-06-29T20:58:39.813Z,24.30
2017-06-29T21:01:07.321Z,24.40
2017-06-29T21:03:34.825Z,24.30
2017-06-29T21:06:03.003Z,24.30
2017-06-29T21:08:30.496Z,24.30
2017-06-29T21:10:58.006Z,24.30
2017-06-29T21:13:25.910Z,24.30
2017-06-29T21:15:53.449Z,24.30
2017-06-29T21:18:20.932Z,24.30
2017-06-29T21:20:48.433Z,24.30
2017-06-29T21:23:16.421Z,24.20
2017-06-29T21:25:44.330Z,24.20
2017-06-29T21:28:12.783Z,24.20
2017-06-29T21:30:40.292Z,24.20
2017-06-29T21:33:08.094Z,24.20
2017-06-29T21:35:35.578Z,24.20
2017-06-29T21:38:03.064Z,24.20
2017-06-29T21:40:30.586Z,24.20
2017-06-29T21:42:58.072Z,24.10
2017-06-29T21:45:25.586Z,24.10
2017-06-29T21:47:53.061Z,24.10
2017-06-29T21:50:20.569Z,24.10
2017-06-29T21:52:48.058Z,24.10
2017-06-29T21:55:15.574Z,24.10
2017-06-29T21:57:43.074Z,24.10
2017-06-29T22:00:10.580Z,24.10
2017-06-29T22:02:38.108Z,24.20
2017-06-29T22:05:05.615Z,24.10
2017-06-29T22:07:33.504Z,24.10
2017-06-29T22:10:01.521Z,24.00
2017-06-29T22:12:29.022Z,24.00
2017-06-29T22:14:57.206Z,24.00
2017-06-29T22:17:24.765Z,24.00
2017-06-29T22:19:52.248Z,24.00
2017-06-29T22:22:19.744Z,24.00
2017-06-29T22:24:47.258Z,24.00
2017-06-29T22:27:15.109Z,24.00
2017-06-29T22:29:42.612Z,24.00
2017-06-29T22:32:11.042Z,24.00
2017-06-29T22:34:40.545Z,24.00
2017-06-29T22:37:08.032Z,24.00
2017-06-29T22:39:35.552Z,24.00
2017-06-29T22:42:04.364Z,24.00
2017-06-29T22:44:31.889Z,24.00
2017-06-29T22:47:00.689Z,24.00
2017-06-29T22:49:28.181Z,24.00
2017-06-29T22:51:55.685Z,24.00
2017-06-29T22:54:23.573Z,24.00
2017-06-29T22:56:51.117Z,24.00
2017-06-29T22:59:19.001Z,24.00
2017-06-29T23:01:46.541Z,24.00
2017-06-29T23:04:16.566Z,24.00
2017-06-29T23:06:44.109Z,24.00
2017-06-29T23:09:11.973Z,24.00
2017-06-29T23:11:41.801Z,24.00
2017-06-29T23:14:09.677Z,24.00
2017-06-29T23:16:37.172Z,24.00
2017-06-29T23:19:04.639Z,24.00
2017-06-29T23:21:33.217Z,24.00
2017-06-29T23:24:00.694Z,24.00
2017-06-29T23:26:28.165Z,24.00
2017-06-29T23:28:57.053Z,23.90
2017-06-29T23:31:25.869Z,23.90
2017-06-29T23:33:54.305Z,23.90
2017-06-29T23:36:21.876Z,23.90
2017-06-29T23:38:49.642Z,23.90
2017-06-29T23:41:17.609Z,23.90
2017-06-29T23:43:45.477Z,23.90
2017-06-29T23:46:13.361Z,23.90
2017-06-29T23:48:40.900Z,23.90
2017-06-29T23:51:08.785Z,23.80
2017-06-29T23:53:36.283Z,23.90
2017-06-29T23:56:04.012Z,23.80
2017-06-29T23:58:31.546Z,23.80
